Time;durP1;ratioP1;P1;durP2;ratioP2;P2;SDS_P1;SDS_P2;PMS_P1;PMS_P2;Temp;Humidity;BMP_temperature;BMP_pressure;BME280_temperature;BME280_humidity;BME280_pressure;Samples;Min_cycle;Max_cycle;Signal;HPM_P1;HPM_P2
2022/07/13 00:00:56;;;;;;;;;;;;;;;16.90;69.98;99972.44;8243973;28;20030;-76
2022/07/13 00:04:57;;;;;;;1999.90;999.90;;;;;;;16.89;69.79;99967.22;8273992;28;19925;-76
2022/07/13 00:08:59;;;;;;;1999.90;999.90;;;;;;;16.83;69.58;99968.19;8254067;28;20587;-76
2022/07/13 00:13:00;;;;;;;1999.90;999.90;;;;;;;16.77;69.94;99964.84;8271044;28;20088;-75
2022/07/13 00:17:02;;;;;;;1999.90;999.90;;;;;;;16.75;69.55;99967.50;8240096;28;20046;-76
2022/07/13 00:21:04;;;;;;;1999.90;999.90;;;;;;;16.67;69.62;99969.41;8266721;28;20362;-75
2022/07/13 00:25:06;;;;;;;1999.90;999.90;;;;;;;16.65;69.73;99963.28;8271507;28;20073;-76
2022/07/13 00:29:08;;;;;;;1999.90;999.90;;;;;;;16.50;70.34;99960.97;8241823;28;20038;-76
2022/07/13 00:33:09;;;;;;;1999.90;999.90;;;;;;;16.35;71.36;99964.78;8255618;28;20046;-75
2022/07/13 00:37:11;;;;;;;1999.90;999.90;;;;;;;16.31;71.83;99963.94;8270186;28;21058;-76
2022/07/13 00:41:12;;;;;;;1999.90;999.90;;;;;;;16.28;71.41;99968.38;8254430;28;20042;-75
2022/07/13 00:45:14;;;;;;;1999.90;999.90;;;;;;;16.21;71.60;99967.63;8274763;28;20077;-76
2022/07/13 00:49:16;;;;;;;1999.90;999.90;;;;;;;16.14;71.93;99968.63;8268717;28;20052;-76
2022/07/13 00:53:18;;;;;;;1999.90;999.90;;;;;;;16.07;72.24;99959.16;8258520;28;20048;-75
2022/07/13 00:57:21;;;;;;;1999.90;999.90;;;;;;;15.91;72.82;99962.91;8260247;28;20800;-75
2022/07/13 01:01:23;;;;;;;;;;;;;;;15.76;73.12;99955.31;8258879;28;20038;-76
2022/07/13 01:05:25;;;;;;;1999.90;999.90;;;;;;;15.67;73.69;99961.59;8274668;28;20004;-75
2022/07/13 01:09:27;;;;;;;1999.90;999.90;;;;;;;15.62;74.01;99961.66;8267237;28;20060;-76
2022/07/13 01:13:28;;;;;;;1999.90;999.90;;;;;;;15.62;73.67;99952.94;8244019;28;20042;-75
2022/07/13 01:17:31;;;;;;;1999.90;999.90;;;;;;;15.58;74.17;99949.44;8252394;28;20060;-76
2022/07/13 01:21:36;;;;;;;1999.90;999.90;;;;;;;15.55;74.64;99957.34;8247080;28;20048;-76
2022/07/13 01:25:39;;;;;;;1999.90;999.90;;;;;;;15.47;74.52;99959.25;8274209;28;20057;-76
2022/07/13 01:29:40;;;;;;;1999.90;999.90;;;;;;;15.37;75.62;99949.78;8268220;28;20049;-76
2022/07/13 01:33:42;;;;;;;1999.90;999.90;;;;;;;15.23;76.16;99944.75;8271535;28;20058;-76
2022/07/13 01:37:44;;;;;;;1999.90;999.90;;;;;;;15.15;76.23;99941.41;8273737;28;20765;-76
2022/07/13 01:41:46;;;;;;;1999.90;999.90;;;;;;;15.14;76.63;99925.72;8267310;28;20122;-76
2022/07/13 01:45:47;;;;;;;1999.90;999.90;;;;;;;15.11;76.55;99918.78;8250931;28;20078;-76
2022/07/13 01:49:48;;;;;;;1999.90;999.90;;;;;;;14.97;76.75;99921.59;8255735;28;20046;-76
2022/07/13 01:53:50;;;;;;;1999.90;999.90;;;;;;;14.90;77.64;99927.81;8254024;28;20082;-76
2022/07/13 01:57:59;;;;;;;1999.90;999.90;;;;;;;14.86;77.77;99925.22;8274665;28;20102;-76
2022/07/13 02:02:00;;;;;;;1999.90;999.90;;;;;;;14.83;77.84;99918.28;8259846;28;20037;-76
2022/07/13 02:06:03;;;;;;;1999.90;999.90;;;;;;;14.76;77.93;99924.50;8255479;28;20054;-76
2022/07/13 02:10:06;;;;;;;1999.90;999.90;;;;;;;14.73;77.84;99914.94;8255646;28;20299;-76
2022/07/13 02:14:08;;;;;;;1999.90;999.90;;;;;;;14.67;78.81;99915.00;8259818;28;20688;-76
2022/07/13 02:18:09;;;;;;;1999.90;999.90;;;;;;;14.60;79.08;99918.59;8260373;28;20078;-75
2022/07/13 02:22:11;;;;;;;1999.90;999.90;;;;;;;14.41;79.10;99915.31;8271163;28;20148;-76
2022/07/13 02:26:12;;;;;;;1999.90;999.90;;;;;;;14.32;79.78;99918.00;8255873;28;20473;-76
2022/07/13 02:30:15;;;;;;;1999.90;999.90;;;;;;;14.30;80.59;99914.53;8275843;28;20129;-76
2022/07/13 02:34:17;;;;;;;1999.90;999.90;;;;;;;14.31;81.29;99912.78;8277168;28;20042;-75
2022/07/13 02:38:19;;;;;;;;;;;;;;;14.24;81.13;99912.00;8262198;28;20805;-76
2022/07/13 02:42:21;;;;;;;1999.90;999.90;;;;;;;14.22;81.01;99908.56;8261727;28;19926;-75
2022/07/13 02:46:22;;;;;;;1999.90;999.90;;;;;;;14.24;80.56;99898.09;8284068;28;20081;-75
2022/07/13 02:50:24;;;;;;;1999.90;999.90;;;;;;;14.20;80.37;99892.03;8279467;28;20070;-75
2022/07/13 02:54:26;;;;;;;1999.90;999.90;;;;;;;14.14;80.84;99879.03;8251842;28;20030;-75
2022/07/13 02:58:27;;;;;;;1999.90;999.90;;;;;;;14.16;80.71;99880.72;8266386;28;20056;-75
2022/07/13 03:02:29;;;;;;;1999.90;999.90;;;;;;;14.17;81.54;99877.25;8279540;28;21134;-75
2022/07/13 03:06:31;;;;;;;1999.90;999.90;;;;;;;14.15;81.74;99880.75;8275930;28;20081;-75
2022/07/13 03:10:32;;;;;;;1999.90;999.90;;;;;;;14.08;81.25;99879.97;8264850;28;20342;-76
2022/07/13 03:14:34;;;;;;;1999.90;999.90;;;;;;;13.99;81.74;99871.34;8272684;28;20069;-76
2022/07/13 03:18:35;;;;;;;1999.90;999.90;;;;;;;13.90;81.91;99867.97;8240478;28;20529;-76
2022/07/13 03:22:37;;;;;;;1999.90;999.90;;;;;;;13.85;82.31;99872.38;8257690;28;20800;-76
2022/07/13 03:26:38;;;;;;;1999.90;999.90;;;;;;;13.77;82.35;99871.56;8279712;28;20319;-76
2022/07/13 03:30:40;;;;;;;1999.90;999.90;;;;;;;13.73;82.95;99867.28;8257744;28;20133;-76
2022/07/13 03:34:41;;;;;;;1999.90;999.90;;;;;;;13.67;83.65;99867.34;8259770;28;20088;-76
2022/07/13 03:38:43;;;;;;;1999.90;999.90;;;;;;;13.71;83.03;99871.66;8275735;28;20054;-76
2022/07/13 03:42:44;;;;;;;1999.90;999.90;;;;;;;13.75;83.61;99868.13;8244391;28;20048;-76
2022/07/13 03:46:45;;;;;;;1999.90;999.90;;;;;;;13.70;82.96;99869.06;8261638;28;20034;-76
2022/07/13 03:50:48;;;;;;;1999.90;999.90;;;;;;;13.68;83.13;99874.28;8274652;28;20057;-76
2022/07/13 03:54:49;;;;;;;1999.90;999.90;;;;;;;13.61;83.19;99872.59;8260397;28;20056;-76
2022/07/13 03:58:50;;;;;;;1999.90;999.90;;;;;;;13.58;83.93;99880.44;8243702;28;20446;-76
2022/07/13 04:02:52;;;;;;;1999.90;999.90;;;;;;;13.64;84.27;99877.78;8244509;28;20068;-76
2022/07/13 04:06:54;;;;;;;;;;;;;;;13.75;85.09;99875.94;8274992;28;20042;-76
2022/07/13 04:10:56;;;;;;;1999.90;999.90;;;;;;;13.78;85.21;99875.06;8262873;28;19926;-76
2022/07/13 04:14:58;;;;;;;1999.90;999.90;;;;;;;13.84;85.11;99875.00;8241846;28;20046;-76
2022/07/13 04:18:59;;;;;;;1999.90;999.90;;;;;;;13.92;84.20;99870.56;8259271;28;20503;-76
2022/07/13 04:23:01;;;;;;;1999.90;999.90;;;;;;;13.96;84.30;99885.31;8256829;28;20779;-76
2022/07/13 04:27:02;;;;;;;1999.90;999.90;;;;;;;14.04;83.49;99887.84;8272071;28;20128;-76
2022/07/13 04:31:04;;;;;;;1999.90;999.90;;;;;;;14.13;83.80;99896.44;8259300;28;20053;-76
2022/07/13 04:35:06;;;;;;;1999.90;999.90;;;;;;;14.27;83.11;99898.03;8258899;28;20043;-76
2022/07/13 04:39:08;;;;;;;1999.90;999.90;;;;;;;14.38;83.42;99898.81;8265684;28;20042;-76
2022/07/13 04:43:09;;;;;;;1999.90;999.90;;;;;;;14.41;82.89;99899.63;8273230;28;20073;-76
2022/07/13 04:47:10;;;;;;;1999.90;999.90;;;;;;;14.51;82.58;99885.56;8276019;28;20152;-76
2022/07/13 04:51:12;;;;;;;1999.90;999.90;;;;;;;14.61;82.18;99885.47;8272764;28;20065;-76
2022/07/13 04:55:13;;;;;;;1999.90;999.90;;;;;;;14.77;81.07;99874.81;8270613;28;20420;-76
2022/07/13 04:59:15;;;;;;;1999.90;999.90;;;;;;;14.82;80.78;99874.72;8255332;28;20088;-76
2022/07/13 05:03:17;;;;;;;1999.90;999.90;;;;;;;14.86;80.92;99871.19;8272376;28;20038;-76
2022/07/13 05:07:18;;;;;;;1999.90;999.90;;;;;;;14.88;81.44;99882.47;8256794;28;20354;-76
2022/07/13 05:11:20;;;;;;;1999.90;999.90;;;;;;;14.90;82.01;99879.84;8237749;28;20117;-76
2022/07/13 05:15:22;;;;;;;1999.90;999.90;;;;;;;14.93;82.69;99883.31;8242408;28;20049;-76
2022/07/13 05:19:23;;;;;;;;;;;;;;;15.02;83.08;99882.28;8272825;28;20073;-76
2022/07/13 05:23:25;;;;;;;1999.90;999.90;;;;;;;15.19;83.19;99882.91;8259631;28;19964;-77
2022/07/13 05:27:27;;;;;;;1999.90;999.90;;;;;;;15.43;81.99;99892.09;8260418;28;20125;-76
2022/07/13 05:31:28;;;;;;;1999.90;999.90;;;;;;;15.63;81.05;99900.56;8275777;28;20121;-77
2022/07/13 05:35:30;;;;;;;1999.90;999.90;;;;;;;15.84;80.05;99899.31;8256729;28;20060;-77
2022/07/13 05:39:31;;;;;;;1999.90;999.90;;;;;;;16.03;79.35;99902.47;8274390;28;20050;-74
2022/07/13 05:43:33;;;;;;;1999.90;999.90;;;;;;;16.20;79.14;99903.03;8274363;28;20142;-74
2022/07/13 05:47:34;;;;;;;1999.90;999.90;;;;;;;16.41;77.99;99895.63;8267017;28;20431;-76
2022/07/13 05:51:36;;;;;;;1999.90;999.90;;;;;;;16.56;76.72;99890.06;8254135;28;20050;-77
2022/07/13 05:55:37;;;;;;;1999.90;999.90;;;;;;;16.76;75.88;99887.94;8252583;28;20136;-77
2022/07/13 05:59:39;;;;;;;1999.90;999.90;;;;;;;16.95;75.52;99880.50;8252677;28;20080;-77
2022/07/13 06:03:40;;;;;;;1999.90;999.90;;;;;;;17.16;74.76;99882.63;8257860;28;20038;-75
2022/07/13 06:07:42;;;;;;;1999.90;999.90;;;;;;;17.37;73.50;99896.16;8267971;28;20622;-76
2022/07/13 06:11:46;;;;;;;1999.90;999.90;;;;;;;17.81;72.10;99889.84;8257121;28;20108;-75
2022/07/13 06:15:47;;;;;;;1999.90;999.90;;;;;;;18.08;71.35;99894.34;8255734;28;20145;-76
2022/07/13 06:19:49;;;;;;;1999.90;999.90;;;;;;;18.37;70.56;99879.56;8267305;28;20048;-77
2022/07/13 06:23:51;;;;;;;1999.90;999.90;;;;;;;18.88;68.99;99885.09;8256892;28;20061;-77
2022/07/13 06:27:52;;;;;;;1999.90;999.90;;;;;;;19.20;66.59;99888.47;8260182;28;20515;-77
2022/07/13 06:31:54;;;;;;;1999.90;999.90;;;;;;;19.80;65.43;99893.56;8256904;28;20141;-77
2022/07/13 06:35:55;;;;;;;1999.90;999.90;;;;;;;19.87;65.00;99899.47;8260235;28;20049;-77
2022/07/13 06:39:57;;;;;;;1999.90;999.90;;;;;;;19.85;63.82;99896.88;8261029;28;20061;-77
2022/07/13 06:43:58;;;;;;;1999.90;999.90;;;;;;;19.94;63.97;99894.88;8254213;28;20121;-77
2022/07/13 06:48:00;;;;;;;1999.90;999.90;;;;;;;20.09;64.63;99889.91;8254667;28;20439;-77
2022/07/13 06:52:02;;;;;;;1999.90;999.90;;;;;;;20.26;64.30;99886.66;8265645;28;20034;-77
2022/07/13 06:56:04;;;;;;;1999.90;999.90;;;;;;;20.35;64.15;99899.53;8240185;28;20046;-75
2022/07/13 07:00:06;;;;;;;1999.90;999.90;;;;;;;20.40;62.14;99892.31;8272591;28;20049;-77
2022/07/13 07:04:08;;;;;;;1999.90;999.90;;;;;;;20.47;61.96;99890.34;8262335;28;20092;-77
2022/07/13 07:08:09;;;;;;;1999.90;999.90;;;;;;;20.59;62.66;99887.25;8270733;28;20069;-77
2022/07/13 07:12:11;;;;;;;1999.90;999.90;;;;;;;20.78;62.20;99888.25;8240805;28;20081;-75
2022/07/13 07:16:12;;;;;;;1999.90;999.90;;;;;;;21.03;60.78;99887.34;8261761;28;20121;-78
2022/07/13 07:20:14;;;;;;;1999.90;999.90;;;;;;;21.27;59.47;99888.16;8241912;28;20115;-77
2022/07/13 07:24:16;;;;;;;1999.90;999.90;;;;;;;21.68;59.13;99883.81;8279173;28;20030;-77
2022/07/13 07:28:17;;;;;;;1999.90;999.90;;;;;;;22.29;58.69;99883.84;8260987;28;20073;-77
2022/07/13 07:32:19;;;;;;;1999.90;999.90;;;;;;;22.64;55.28;99884.91;8248461;28;20073;-77
2022/07/13 07:36:21;;;;;;;1999.90;999.90;;;;;;;22.86;56.57;99887.44;8258970;28;20751;-75
2022/07/13 07:40:23;;;;;;;1999.90;999.90;;;;;;;23.01;56.78;99886.72;8267283;28;20061;-77
2022/07/13 07:44:24;;;;;;;1999.90;999.90;;;;;;;23.07;54.55;99885.56;8262609;28;20876;-77
2022/07/13 07:48:27;;;;;;;1999.90;999.90;;;;;;;23.25;55.40;99891.78;8265045;28;20046;-77
2022/07/13 07:52:29;;;;;;;1999.90;999.90;;;;;;;23.44;54.51;99895.25;8263093;28;20042;-76
2022/07/13 07:56:51;;;;;;;1999.90;999.90;;;;;;;23.62;52.14;99894.38;8257206;28;20428;-77
2022/07/13 08:00:52;;;;;;;1999.90;999.90;;;;;;;23.88;53.45;99889.53;8275647;28;20046;-76
2022/07/13 08:04:54;;;;;;;1999.90;999.90;;;;;;;24.48;52.21;99884.66;8260750;28;20038;-76
2022/07/13 08:08:55;;;;;;;1999.90;999.90;;;;;;;25.02;50.61;99880.81;8250982;28;20056;-77
2022/07/13 08:12:59;;;;;;;1999.90;999.90;;;;;;;25.58;49.39;99880.22;8271651;28;20069;-78
2022/07/13 08:17:01;;;;;;;1999.90;999.90;;;;;;;26.37;47.63;99871.97;8276334;28;20046;-77
2022/07/13 08:21:03;;;;;;;1999.90;999.90;;;;;;;27.10;46.07;99859.31;8256477;28;20811;-76
2022/07/13 08:25:06;;;;;;;1999.90;999.90;;;;;;;27.61;44.32;99867.50;8260228;28;20042;-78
2022/07/13 08:29:07;;;;;;;1999.90;999.90;;;;;;;28.05;42.08;99862.81;8243441;28;20145;-76
2022/07/13 08:33:09;;;;;;;1999.90;999.90;;;;;;;28.08;41.37;99859.94;8253705;28;20215;-76
2022/07/13 08:41:44;;;;;;;1999.90;999.90;;;;;;;27.41;40.92;99862.66;8254417;28;20141;-76
2022/07/13 08:45:46;;;;;;;1999.90;999.90;;;;;;;27.96;40.64;99864.28;8255952;28;20034;-74
2022/07/13 08:49:52;;;;;;;1999.90;999.90;;;;;;;28.68;40.67;99857.44;8252063;28;20065;-76
2022/07/13 08:54:04;;;;;;;1999.90;999.90;;;;;;;29.10;37.46;99863.38;8256243;28;20038;-74
2022/07/13 08:58:06;;;;;;;1999.90;999.90;;;;;;;29.18;37.61;99856.47;8274568;28;20053;-77
2022/07/13 09:02:09;;;;;;;1999.90;999.90;;;;;;;29.43;35.97;99865.34;8273310;28;20438;-77
2022/07/13 09:06:39;;;;;;;1999.90;999.90;;;;;;;29.92;35.11;99851.78;8253956;28;20409;-75
2022/07/13 09:11:13;;;;;;;1999.90;999.90;;;;;;;30.77;34.01;99843.38;8268590;28;20451;-77
2022/07/13 09:15:15;;;;;;;1999.90;999.90;;;;;;;30.97;33.05;99848.81;8222727;28;20054;-75
2022/07/13 09:19:17;;;;;;;1999.90;999.90;;;;;;;30.82;33.45;99842.00;8254909;28;20097;-75
2022/07/13 09:23:29;;;;;;;1999.90;999.90;;;;;;;30.68;32.83;99843.13;8270995;28;20042;-77
2022/07/13 09:27:46;;;;;;;1999.90;999.90;;;;;;;30.56;31.58;99844.09;8260852;28;20050;-76
2022/07/13 09:31:52;;;;;;;1999.90;999.90;;;;;;;30.65;31.35;99839.84;8255765;28;20052;-76
2022/07/13 09:35:55;;;;;;;1999.90;999.90;;;;;;;30.84;31.95;99840.06;8262807;28;20049;-76
2022/07/13 09:40:07;;;;;;;1999.90;999.90;;;;;;;31.18;30.51;99840.00;8268294;28;20866;-77
2022/07/13 09:48:30;;;;;;;1999.90;999.90;;;;;;;31.23;27.75;99827.06;8257852;28;20088;-77
2022/07/13 09:52:31;;;;;;;1999.90;999.90;;;;;;;31.18;27.20;99824.75;8273311;28;20883;-76
2022/07/13 09:56:46;;;;;;;1999.90;999.90;;;;;;;30.82;27.84;99825.94;8269235;28;20049;-76
2022/07/13 10:00:49;;;;;;;1999.90;999.90;;;;;;;30.57;29.18;99820.81;8249564;28;20052;-76
2022/07/13 10:04:51;;;;;;;1999.90;999.90;;;;;;;30.36;28.34;99826.06;8246557;28;20785;-76
2022/07/13 10:08:54;;;;;;;1999.90;999.90;;;;;;;30.23;28.44;99833.38;8264303;28;20068;-76
2022/07/13 10:13:05;;;;;;;1999.90;999.90;;;;;;;30.42;30.57;99822.03;8230344;28;20038;-76
2022/07/13 10:17:10;;;;;;;1999.90;999.90;;;;;;;30.54;26.98;99824.59;8233742;28;20185;-77
2022/07/13 10:21:25;;;;;;;1999.90;999.90;;;;;;;30.60;29.20;99817.88;8241395;28;20730;-77
2022/07/13 10:25:41;;;;;;;1999.90;999.90;;;;;;;30.87;26.59;99815.66;8239863;28;20076;-77
2022/07/13 10:29:48;;;;;;;1999.90;999.90;;;;;;;31.03;27.20;99809.03;8231600;28;20072;-77
2022/07/13 10:33:49;;;;;;;1999.90;999.90;;;;;;;30.98;29.19;99810.28;8247039;28;20050;-77
2022/07/13 10:37:58;;;;;;;1999.90;999.90;;;;;;;31.33;28.22;99808.38;8266167;28;20156;-77
2022/07/13 10:42:10;;;;;;;1999.90;999.90;;;;;;;31.78;28.38;99799.13;8254279;28;20042;-77
2022/07/13 10:46:44;;;;;;;1999.90;999.90;;;;;;;32.05;26.66;99808.47;8267418;28;20137;-76
2022/07/13 10:50:54;;;;;;;1999.90;999.90;;;;;;;32.43;26.41;99803.28;8255491;28;20038;-76
2022/07/13 10:55:11;;;;;;;1999.90;999.90;;;;;;;32.57;25.32;99791.31;8272141;28;20081;-77
2022/07/13 10:59:45;;;;;;;1999.90;999.90;;;;;;;32.63;25.29;99795.28;8264184;28;20042;-77
2022/07/13 11:03:47;;;;;;;1999.90;999.90;;;;;;;32.89;23.92;99791.13;8245769;28;20061;-76
2022/07/13 11:07:51;;;;;;;1999.90;999.90;;;;;;;33.24;24.25;99776.28;8258279;28;20362;-77
2022/07/13 11:11:53;;;;;;;1999.90;999.90;;;;;;;33.67;21.69;99781.22;8261433;28;20042;-77
2022/07/13 11:15:55;;;;;;;1999.90;999.90;;;;;;;34.06;21.46;99775.75;8256864;28;20048;-77
2022/07/13 11:20:05;;;;;;;1999.90;999.90;;;;;;;34.21;20.61;99761.63;8260645;28;20773;-77
2022/07/13 11:28:41;;;;;;;1999.90;999.90;;;;;;;34.36;19.75;99759.34;8258737;28;20455;-77
2022/07/13 11:32:43;;;;;;;1999.90;999.90;;;;;;;34.45;20.89;99757.56;8259680;28;20696;-78
2022/07/13 11:36:45;;;;;;;1999.90;999.90;;;;;;;34.53;21.06;99750.44;8241151;28;20054;-77
2022/07/13 11:40:47;;;;;;;1999.90;999.90;;;;;;;34.44;20.69;99756.72;8275026;28;20061;-77
2022/07/13 11:44:52;;;;;;;1999.90;999.90;;;;;;;34.09;20.55;99743.94;8272389;28;20817;-77
2022/07/13 11:48:58;;;;;;;1999.90;999.90;;;;;;;33.58;19.42;99725.53;8257832;28;20673;-77
2022/07/13 11:52:59;;;;;;;1999.90;999.90;;;;;;;33.15;21.54;99736.75;8270165;28;20125;-77
2022/07/13 11:57:01;;;;;;;1999.90;999.90;;;;;;;32.74;21.55;99738.69;8252682;28;20124;-77
2022/07/13 12:01:11;;;;;;;1999.90;999.90;;;;;;;32.38;23.04;99719.50;8270950;28;20408;-77
2022/07/13 12:05:21;;;;;;;1999.90;999.90;;;;;;;31.95;24.66;99705.47;8255184;28;20042;-77
2022/07/13 12:09:27;;;;;;;1999.90;999.90;;;;;;;31.58;25.24;99722.06;8256147;28;20378;-77
2022/07/13 12:13:34;;;;;;;1999.90;999.90;;;;;;;31.26;26.26;99727.53;8275275;28;20070;-77
2022/07/13 12:17:45;;;;;;;1999.90;999.90;;;;;;;31.05;26.74;99721.25;8252387;28;20049;-76
2022/07/13 12:21:58;;;;;;;1999.90;999.90;;;;;;;30.94;26.76;99725.69;8250793;28;20122;-76
2022/07/13 12:26:06;;;;;;;1999.90;999.90;;;;;;;31.01;27.34;99725.16;8264000;28;20042;-76
2022/07/13 12:30:11;;;;;;;1999.90;999.90;;;;;;;31.03;26.83;99716.00;8255213;28;20074;-76
2022/07/13 12:34:13;;;;;;;1999.90;999.90;;;;;;;31.29;27.65;99716.53;8270153;28;20042;-76
2022/07/13 12:38:15;;;;;;;1999.90;999.90;;;;;;;31.65;24.32;99715.19;8258853;28;20045;-76
2022/07/13 12:42:20;;;;;;;1999.90;999.90;;;;;;;32.01;24.96;99707.63;8231161;28;20049;-76
2022/07/13 12:46:21;;;;;;;1999.90;999.90;;;;;;;32.22;23.72;99704.84;8269329;28;20039;-76
2022/07/13 12:50:26;;;;;;;1999.90;999.90;;;;;;;32.29;24.17;99703.34;8252740;28;20073;-76
2022/07/13 12:54:45;;;;;;;1999.90;999.90;;;;;;;32.44;23.91;99701.97;8264832;28;20082;-76
2022/07/13 12:58:51;;;;;;;1999.90;999.90;;;;;;;32.66;24.90;99703.56;8248513;28;20037;-76
2022/07/13 13:02:53;;;;;;;1999.90;999.90;;;;;;;32.68;23.65;99691.69;8248422;28;20045;-76
2022/07/13 13:06:55;;;;;;;1999.90;999.90;;;;;;;32.56;23.48;99698.19;8229905;28;20609;-76
2022/07/13 13:10:57;;;;;;;1999.90;999.90;;;;;;;32.38;23.28;99700.69;8256406;28;20683;-76
2022/07/13 13:14:59;;;;;;;1999.90;999.90;;;;;;;32.29;23.82;99695.28;8274757;28;20049;-76
2022/07/13 13:19:01;;;;;;;1999.90;999.90;;;;;;;32.32;22.16;99685.13;8256648;28;20046;-74
2022/07/13 13:23:02;;;;;;;1999.90;999.90;;;;;;;32.80;21.81;99681.66;8266975;28;20106;-76
2022/07/13 13:27:04;;;;;;;1999.90;999.90;;;;;;;33.09;21.33;99681.66;8257163;28;20050;-76
2022/07/13 13:31:22;;;;;;;1999.90;999.90;;;;;;;33.17;20.77;99679.09;8246685;28;20088;-76
2022/07/13 13:35:24;;;;;;;1999.90;999.90;;;;;;;33.44;20.35;99680.22;8253497;28;20061;-76
2022/07/13 13:39:25;;;;;;;1999.90;999.90;;;;;;;33.70;19.61;99680.41;8269081;28;20042;-76
2022/07/13 13:43:27;;;;;;;1999.90;999.90;;;;;;;33.72;19.62;99671.16;8229225;28;20081;-76
2022/07/13 13:47:28;;;;;;;1999.90;999.90;;;;;;;33.64;20.96;99663.84;8265695;28;20144;-76
2022/07/13 13:51:30;;;;;;;1999.90;999.90;;;;;;;33.44;20.74;99662.22;8255894;28;20363;-76
2022/07/13 13:55:51;;;;;;;1999.90;999.90;;;;;;;33.42;21.19;99656.13;8267181;28;20057;-76
2022/07/13 13:59:53;;;;;;;1999.90;999.90;;;;;;;33.38;21.09;99652.00;8245530;28;20050;-76
2022/07/13 14:04:15;;;;;;;1999.90;999.90;;;;;;;33.25;20.37;99651.47;8274200;28;20053;-76
2022/07/13 14:08:17;;;;;;;1999.90;999.90;;;;;;;33.23;20.12;99642.69;8272385;28;20046;-76
2022/07/13 14:12:18;;;;;;;1999.90;999.90;;;;;;;33.28;20.48;99640.41;8254848;28;20692;-76
2022/07/13 14:16:20;;;;;;;1999.90;999.90;;;;;;;33.77;22.04;99633.03;8270920;28;20069;-76
2022/07/13 14:20:23;;;;;;;1999.90;999.90;;;;;;;34.10;21.47;99637.81;8274534;28;20054;-76
2022/07/13 14:24:25;;;;;;;1999.90;999.90;;;;;;;34.28;18.85;99628.91;8262359;28;20741;-76
2022/07/13 14:28:27;;;;;;;1999.90;999.90;;;;;;;34.17;18.87;99627.31;8236764;28;20041;-77
2022/07/13 14:32:28;;;;;;;1999.90;999.90;;;;;;;34.13;19.87;99620.53;8280205;28;20327;-77
2022/07/13 14:36:33;;;;;;;1999.90;999.90;;;;;;;34.19;19.95;99622.59;8262682;28;20623;-77
2022/07/13 14:40:34;;;;;;;1999.90;999.90;;;;;;;34.17;20.52;99625.47;8252418;28;20049;-76
2022/07/13 14:44:36;;;;;;;1999.90;999.90;;;;;;;34.19;19.78;99611.81;8259373;28;20046;-77
2022/07/13 14:48:38;;;;;;;1999.90;999.90;;;;;;;34.15;20.38;99608.59;8274286;28;20382;-76
2022/07/13 14:52:52;;;;;;;1999.90;999.90;;;;;;;34.07;19.49;99615.72;8257094;28;20104;-76
2022/07/13 14:56:54;;;;;;;1999.90;999.90;;;;;;;34.13;20.77;99602.50;8260611;28;20052;-76
2022/07/13 15:00:56;;;;;;;1999.90;999.90;;;;;;;34.27;21.04;99606.50;8259471;28;20045;-76
2022/07/13 15:04:58;;;;;;;1999.90;999.90;;;;;;;34.37;19.95;99603.78;8259470;28;20124;-77
2022/07/13 15:09:00;;;;;;;1999.90;999.90;;;;;;;34.46;20.67;99600.16;8280187;28;20124;-77
2022/07/13 15:13:21;;;;;;;1999.90;999.90;;;;;;;34.37;20.53;99599.22;8271336;28;20480;-76
2022/07/13 15:17:23;;;;;;;1999.90;999.90;;;;;;;34.35;20.73;99598.53;8259499;28;20133;-76
2022/07/13 15:21:45;;;;;;;1999.90;999.90;;;;;;;34.29;20.79;99591.00;8273529;28;20120;-76
2022/07/13 15:25:46;;;;;;;1999.90;999.90;;;;;;;34.16;21.03;99594.09;8251724;28;20070;-76
2022/07/13 15:29:48;;;;;;;1999.90;999.90;;;;;;;34.07;20.67;99583.38;8256007;28;20105;-75
2022/07/13 15:33:52;;;;;;;1999.90;999.90;;;;;;;33.89;21.75;99588.75;8240479;28;20122;-76
2022/07/13 15:37:54;;;;;;;1999.90;999.90;;;;;;;33.80;22.28;99584.25;8250188;28;20046;-76
2022/07/13 15:41:55;;;;;;;1999.90;999.90;;;;;;;33.82;21.27;99580.38;8240538;28;20877;-76
2022/07/13 15:45:57;;;;;;;1999.90;999.90;;;;;;;33.88;20.92;99574.41;8258250;28;20129;-76
2022/07/13 15:49:58;;;;;;;1999.90;999.90;;;;;;;34.12;21.98;99573.00;8260350;28;20787;-77
2022/07/13 15:54:00;;;;;;;1999.90;999.90;;;;;;;34.20;20.94;99571.22;8270703;28;20080;-76
2022/07/13 15:58:02;;;;;;;1999.90;999.90;;;;;;;34.33;21.06;99565.47;8256037;28;20050;-76
2022/07/13 16:02:04;;;;;;;1999.90;999.90;;;;;;;34.44;21.20;99565.25;8280687;28;20446;-76
2022/07/13 16:06:05;;;;;;;1999.90;999.90;;;;;;;34.60;20.67;99558.28;8280194;28;20354;-76
2022/07/13 16:10:07;;;;;;;1999.90;999.90;;;;;;;34.57;19.87;99543.28;8262580;28;20045;-77
2022/07/13 16:14:08;;;;;;;1999.90;999.90;;;;;;;34.57;20.13;99554.06;8259404;28;20080;-76
2022/07/13 16:18:10;;;;;;;1999.90;999.90;;;;;;;34.68;19.88;99548.44;8268614;28;20125;-76
2022/07/13 16:22:13;;;;;;;1999.90;999.90;;;;;;;34.65;20.41;99553.28;8249616;28;20046;-77
2022/07/13 16:26:14;;;;;;;1999.90;999.90;;;;;;;34.45;19.75;99547.22;8252713;28;20149;-76
2022/07/13 16:30:17;;;;;;;1999.90;999.90;;;;;;;34.24;20.21;99544.81;8270937;28;20152;-76
2022/07/13 16:34:19;;;;;;;1999.90;999.90;;;;;;;34.08;20.51;99544.66;8257217;28;20042;-76
2022/07/13 16:38:20;;;;;;;1999.90;999.90;;;;;;;33.96;20.85;99530.56;8273680;28;20058;-76
2022/07/13 16:42:22;;;;;;;1999.90;999.90;;;;;;;33.64;19.76;99531.84;8250572;28;20052;-77
2022/07/13 16:46:23;;;;;;;1999.90;999.90;;;;;;;33.23;21.22;99532.31;8266279;28;20069;-77
2022/07/13 16:50:25;;;;;;;1999.90;999.90;;;;;;;32.87;20.44;99525.94;8256601;28;20050;-76
2022/07/13 16:54:27;;;;;;;1999.90;999.90;;;;;;;32.61;21.62;99531.03;8254431;28;20041;-75
2022/07/13 16:58:29;;;;;;;1999.90;999.90;;;;;;;32.37;22.50;99520.72;8269902;28;20149;-75
2022/07/13 17:02:30;;;;;;;1999.90;999.90;;;;;;;32.08;22.29;99518.84;8267786;28;20053;-75
2022/07/13 17:06:32;;;;;;;1999.90;999.90;;;;;;;31.82;24.08;99515.88;8268946;28;20066;-74
2022/07/13 17:10:34;;;;;;;1999.90;999.90;;;;;;;31.53;25.03;99515.75;8250235;28;20053;-74
2022/07/13 17:14:36;;;;;;;1999.90;999.90;;;;;;;31.39;23.88;99521.50;8267636;28;20050;-74
2022/07/13 17:19:00;;;;;;;1999.90;999.90;;;;;;;31.20;24.42;99521.41;8270704;28;20050;-74
2022/07/13 17:23:02;;;;;;;1999.90;999.90;;;;;;;31.04;23.13;99512.97;8249814;28;20046;-74
2022/07/13 17:27:04;;;;;;;1999.90;999.90;;;;;;;30.96;23.34;99509.16;8269611;28;20840;-74
2022/07/13 17:31:05;;;;;;;1999.90;999.90;;;;;;;30.77;25.88;99510.88;8264101;28;20041;-74
2022/07/13 17:35:08;;;;;;;1999.90;999.90;;;;;;;30.59;25.75;99510.59;8268526;28;20078;-74
2022/07/13 17:39:10;;;;;;;1999.90;999.90;;;;;;;30.42;25.95;99508.50;8254074;28;20069;-74
2022/07/13 17:43:12;;;;;;;1999.90;999.90;;;;;;;30.21;27.94;99513.84;8259655;28;20505;-74
2022/07/13 17:47:13;;;;;;;1999.90;999.90;;;;;;;30.07;26.58;99505.13;8272618;28;20050;-74
2022/07/13 17:51:15;;;;;;;1999.90;999.90;;;;;;;29.94;28.04;99509.75;8259372;28;20045;-74
2022/07/13 17:55:16;;;;;;;1999.90;999.90;;;;;;;29.77;28.90;99507.59;8251581;28;20048;-74
2022/07/13 17:59:19;;;;;;;1999.90;999.90;;;;;;;29.62;28.60;99506.19;8235272;28;20133;-74
2022/07/13 18:03:20;;;;;;;1999.90;999.90;;;;;;;29.42;29.58;99497.91;8268026;28;20129;-73
2022/07/13 18:07:22;;;;;;;1999.90;999.90;;;;;;;29.28;29.95;99508.03;8250241;28;20034;-73
2022/07/13 18:11:24;;;;;;;1999.90;999.90;;;;;;;29.06;30.71;99508.88;8269308;28;20050;-73
2022/07/13 18:15:26;;;;;;;1999.90;999.90;;;;;;;28.83;31.82;99507.97;8264223;28;20065;-73
2022/07/13 18:19:28;;;;;;;1999.90;999.90;;;;;;;28.56;32.63;99502.97;8255721;28;20050;-73